sensor_id;sensor_type;location;lat;lon;timestamp;pressure;altitude;pressure_sealevel;temperature;humidity
70323;BME280;57735;56.264;43.898;2023-01-29T00:00:07;101091.78;;;-1.84;64.33
70323;BME280;57735;56.264;43.898;2023-01-29T00:02:39;101093.13;;;-1.95;64.49
70323;BME280;57735;56.264;43.898;2023-01-29T00:05:10;101094.53;;;-2.10;64.77
70323;BME280;57735;56.264;43.898;2023-01-29T00:07:43;101091.38;;;-2.18;65.05
70323;BME280;57735;56.264;43.898;2023-01-29T00:10:14;101095.88;;;-2.23;65.43
70323;BME280;57735;56.264;43.898;2023-01-29T00:12:45;101084.66;;;-2.25;65.54
70323;BME280;57735;56.264;43.898;2023-01-29T00:15:16;101076.13;;;-2.30;65.79
70323;BME280;57735;56.264;43.898;2023-01-29T00:17:47;101071.75;;;-2.30;66.54
70323;BME280;57735;56.264;43.898;2023-01-29T00:20:18;101071.63;;;-2.27;66.79
70323;BME280;57735;56.264;43.898;2023-01-29T00:22:52;101058.44;;;-2.22;66.66
70323;BME280;57735;56.264;43.898;2023-01-29T00:25:23;101063.47;;;-2.18;66.90
70323;BME280;57735;56.264;43.898;2023-01-29T00:27:56;101050.25;;;-2.13;66.93
70323;BME280;57735;56.264;43.898;2023-01-29T00:30:27;101047.34;;;-2.05;67.37
70323;BME280;57735;56.264;43.898;2023-01-29T00:32:58;101048.00;;;-2.00;67.28
70323;BME280;57735;56.264;43.898;2023-01-29T00:35:30;101053.06;;;-1.96;67.71
70323;BME280;57735;56.264;43.898;2023-01-29T00:38:00;101049.38;;;-1.90;67.73
70323;BME280;57735;56.264;43.898;2023-01-29T00:40:31;101039.69;;;-1.87;68.08
70323;BME280;57735;56.264;43.898;2023-01-29T00:43:22;101051.84;;;-1.86;68.12
70323;BME280;57735;56.264;43.898;2023-01-29T00:46:25;101043.31;;;-1.91;68.83
70323;BME280;57735;56.264;43.898;2023-01-29T00:48:56;101045.13;;;-1.93;69.30
70323;BME280;57735;56.264;43.898;2023-01-29T00:51:27;101034.91;;;-1.99;69.80
70323;BME280;57735;56.264;43.898;2023-01-29T00:54:00;101037.72;;;-2.03;70.16
70323;BME280;57735;56.264;43.898;2023-01-29T00:56:32;101030.84;;;-2.06;70.53
70323;BME280;57735;56.264;43.898;2023-01-29T00:59:06;101027.97;;;-2.00;70.31
70323;BME280;57735;56.264;43.898;2023-01-29T01:01:36;101029.69;;;-1.99;70.62
70323;BME280;57735;56.264;43.898;2023-01-29T01:04:25;101023.38;;;-1.93;70.77
70323;BME280;57735;56.264;43.898;2023-01-29T01:06:56;101013.03;;;-1.96;70.86
70323;BME280;57735;56.264;43.898;2023-01-29T01:09:27;101007.81;;;-1.96;70.94
70323;BME280;57735;56.264;43.898;2023-01-29T01:12:16;101007.75;;;-1.95;71.04
70323;BME280;57735;56.264;43.898;2023-01-29T01:14:47;101005.03;;;-1.92;71.21
70323;BME280;57735;56.264;43.898;2023-01-29T01:17:18;101004.13;;;-1.91;71.20
70323;BME280;57735;56.264;43.898;2023-01-29T01:19:49;100998.09;;;-1.93;71.47
70323;BME280;57735;56.264;43.898;2023-01-29T01:22:22;101001.63;;;-1.94;71.39
70323;BME280;57735;56.264;43.898;2023-01-29T01:24:52;100999.91;;;-1.95;71.63
70323;BME280;57735;56.264;43.898;2023-01-29T01:27:23;100996.50;;;-1.97;71.76
70323;BME280;57735;56.264;43.898;2023-01-29T01:29:55;100998.91;;;-1.91;71.94
70323;BME280;57735;56.264;43.898;2023-01-29T01:32:25;100991.97;;;-1.92;71.93
70323;BME280;57735;56.264;43.898;2023-01-29T01:34:56;100998.09;;;-1.93;72.33
70323;BME280;57735;56.264;43.898;2023-01-29T01:37:29;100994.81;;;-1.98;72.59
70323;BME280;57735;56.264;43.898;2023-01-29T01:40:00;101001.75;;;-1.97;72.56
70323;BME280;57735;56.264;43.898;2023-01-29T01:42:33;100998.22;;;-1.96;72.69
70323;BME280;57735;56.264;43.898;2023-01-29T01:45:20;100984.97;;;-1.91;72.30
70323;BME280;57735;56.264;43.898;2023-01-29T01:48:18;100983.22;;;-1.91;72.52
70323;BME280;57735;56.264;43.898;2023-01-29T01:51:13;100983.09;;;-1.88;72.61
70323;BME280;57735;56.264;43.898;2023-01-29T01:54:13;100983.75;;;-1.83;72.39
70323;BME280;57735;56.264;43.898;2023-01-29T01:56:52;100969.94;;;-1.85;72.77
70323;BME280;57735;56.264;43.898;2023-01-29T01:59:25;100983.75;;;-1.83;72.68
70323;BME280;57735;56.264;43.898;2023-01-29T02:01:56;100977.69;;;-1.83;72.82
70323;BME280;57735;56.264;43.898;2023-01-29T02:04:27;100981.16;;;-1.83;73.24
70323;BME280;57735;56.264;43.898;2023-01-29T02:07:17;100987.22;;;-1.82;73.22
70323;BME280;57735;56.264;43.898;2023-01-29T02:10:12;100980.97;;;-1.78;73.28
70323;BME280;57735;56.264;43.898;2023-01-29T02:12:44;100981.66;;;-1.73;73.27
70323;BME280;57735;56.264;43.898;2023-01-29T02:15:15;100971.13;;;-1.71;73.12
70323;BME280;57735;56.264;43.898;2023-01-29T02:17:46;100967.66;;;-1.72;73.24
70323;BME280;57735;56.264;43.898;2023-01-29T02:20:22;100977.44;;;-1.77;73.44
70323;BME280;57735;56.264;43.898;2023-01-29T02:28:53;100953.81;;;-1.96;74.33
70323;BME280;57735;56.264;43.898;2023-01-29T02:31:40;100963.72;;;-2.04;74.70
70323;BME280;57735;56.264;43.898;2023-01-29T02:34:17;100957.03;;;-2.11;74.95
70323;BME280;57735;56.264;43.898;2023-01-29T02:37:02;100955.25;;;-2.11;75.33
70323;BME280;57735;56.264;43.898;2023-01-29T02:42:24;100944.66;;;-2.06;75.17
70323;BME280;57735;56.264;43.898;2023-01-29T02:45:01;100941.19;;;-2.06;75.23
70323;BME280;57735;56.264;43.898;2023-01-29T02:47:41;100945.56;;;-2.07;75.42
70323;BME280;57735;56.264;43.898;2023-01-29T02:50:22;100936.00;;;-2.08;75.55
70323;BME280;57735;56.264;43.898;2023-01-29T02:53:07;100939.41;;;-2.06;75.35
70323;BME280;57735;56.264;43.898;2023-01-29T02:55:46;100936.75;;;-2.04;75.40
70323;BME280;57735;56.264;43.898;2023-01-29T02:58:32;100929.78;;;-2.04;75.37
70323;BME280;57735;56.264;43.898;2023-01-29T03:01:17;100925.34;;;-2.02;75.54
70323;BME280;57735;56.264;43.898;2023-01-29T03:03:52;100938.25;;;-1.99;75.50
70323;BME280;57735;56.264;43.898;2023-01-29T03:06:32;100930.56;;;-2.02;75.09
70323;BME280;57735;56.264;43.898;2023-01-29T03:09:10;100936.44;;;-1.97;75.48
70323;BME280;57735;56.264;43.898;2023-01-29T03:11:53;100923.94;;;-1.89;75.26
70323;BME280;57735;56.264;43.898;2023-01-29T03:14:36;100924.84;;;-1.90;75.01
70323;BME280;57735;56.264;43.898;2023-01-29T03:17:35;100919.63;;;-1.90;75.04
70323;BME280;57735;56.264;43.898;2023-01-29T03:20:11;100922.97;;;-1.86;75.02
70323;BME280;57735;56.264;43.898;2023-01-29T03:22:48;100924.56;;;-1.84;74.98
70323;BME280;57735;56.264;43.898;2023-01-29T03:25:21;100917.75;;;-1.86;75.00
70323;BME280;57735;56.264;43.898;2023-01-29T03:28:15;100917.91;;;-1.91;75.10
70323;BME280;57735;56.264;43.898;2023-01-29T03:31:09;100910.97;;;-1.92;74.97
70323;BME280;57735;56.264;43.898;2023-01-29T03:34:15;100906.06;;;-1.99;75.24
70323;BME280;57735;56.264;43.898;2023-01-29T03:36:56;100901.63;;;-1.97;75.01
70323;BME280;57735;56.264;43.898;2023-01-29T03:39:28;100899.91;;;-1.98;75.21
70323;BME280;57735;56.264;43.898;2023-01-29T03:42:08;100893.78;;;-1.97;75.18
70323;BME280;57735;56.264;43.898;2023-01-29T03:45:05;100886.88;;;-1.98;75.14
70323;BME280;57735;56.264;43.898;2023-01-29T03:50:58;100889.78;;;-2.06;75.01
70323;BME280;57735;56.264;43.898;2023-01-29T03:53:53;100895.94;;;-2.07;75.16
70323;BME280;57735;56.264;43.898;2023-01-29T04:01:56;100883.91;;;-2.11;75.06
70323;BME280;57735;56.264;43.898;2023-01-29T04:04:32;100884.63;;;-2.07;74.84
70323;BME280;57735;56.264;43.898;2023-01-29T04:07:18;100883.00;;;-2.10;74.41
70323;BME280;57735;56.264;43.898;2023-01-29T04:09:58;100880.59;;;-2.16;73.82
70323;BME280;57735;56.264;43.898;2023-01-29T04:12:40;100883.38;;;-2.19;73.90
70323;BME280;57735;56.264;43.898;2023-01-29T04:15:14;100881.47;;;-2.16;74.02
70323;BME280;57735;56.264;43.898;2023-01-29T04:17:51;100884.00;;;-2.14;73.61
70323;BME280;57735;56.264;43.898;2023-01-29T04:20:24;100870.97;;;-2.14;73.24
70323;BME280;57735;56.264;43.898;2023-01-29T04:22:55;100866.53;;;-2.12;72.92
70323;BME280;57735;56.264;43.898;2023-01-29T04:25:31;100872.66;;;-2.13;72.48
70323;BME280;57735;56.264;43.898;2023-01-29T04:28:22;100871.81;;;-2.14;72.45
70323;BME280;57735;56.264;43.898;2023-01-29T04:33:42;100854.03;;;-2.26;72.44
70323;BME280;57735;56.264;43.898;2023-01-29T04:39:27;100843.22;;;-2.38;71.93
70323;BME280;57735;56.264;43.898;2023-01-29T04:42:12;100846.88;;;-2.42;72.16
70323;BME280;57735;56.264;43.898;2023-01-29T04:44:53;100842.56;;;-2.43;72.00
70323;BME280;57735;56.264;43.898;2023-01-29T04:47:55;100847.88;;;-2.47;72.03
70323;BME280;57735;56.264;43.898;2023-01-29T04:58:43;100831.81;;;-2.58;71.69
70323;BME280;57735;56.264;43.898;2023-01-29T05:01:18;100833.50;;;-2.57;71.59
70323;BME280;57735;56.264;43.898;2023-01-29T05:03:50;100830.09;;;-2.59;71.62
70323;BME280;57735;56.264;43.898;2023-01-29T05:06:23;100832.59;;;-2.56;71.72
70323;BME280;57735;56.264;43.898;2023-01-29T05:08:55;100830.59;;;-2.49;71.67
70323;BME280;57735;56.264;43.898;2023-01-29T05:11:26;100831.38;;;-2.47;71.41
70323;BME280;57735;56.264;43.898;2023-01-29T05:14:02;100830.59;;;-2.49;71.32
70323;BME280;57735;56.264;43.898;2023-01-29T05:16:39;100822.94;;;-2.54;71.23
70323;BME280;57735;56.264;43.898;2023-01-29T05:19:13;100836.91;;;-2.55;71.20
70323;BME280;57735;56.264;43.898;2023-01-29T05:21:47;100828.47;;;-2.61;71.59
70323;BME280;57735;56.264;43.898;2023-01-29T05:24:21;100837.34;;;-2.67;71.44
70323;BME280;57735;56.264;43.898;2023-01-29T05:26:53;100833.84;;;-2.66;71.29
70323;BME280;57735;56.264;43.898;2023-01-29T05:29:44;100829.38;;;-2.62;71.66
70323;BME280;57735;56.264;43.898;2023-01-29T05:32:16;100826.03;;;-2.66;71.31
70323;BME280;57735;56.264;43.898;2023-01-29T05:34:46;100829.53;;;-2.67;71.25
70323;BME280;57735;56.264;43.898;2023-01-29T05:37:17;100829.63;;;-2.68;71.25
70323;BME280;57735;56.264;43.898;2023-01-29T05:39:48;100823.66;;;-2.72;71.32
70323;BME280;57735;56.264;43.898;2023-01-29T05:42:19;100819.25;;;-2.70;71.48
70323;BME280;57735;56.264;43.898;2023-01-29T05:44:50;100822.75;;;-2.71;71.01
70323;BME280;57735;56.264;43.898;2023-01-29T05:47:20;100819.28;;;-2.71;71.14
70323;BME280;57735;56.264;43.898;2023-01-29T05:49:51;100813.88;;;-2.67;71.29
70323;BME280;57735;56.264;43.898;2023-01-29T05:52:22;100809.28;;;-2.60;71.04
70323;BME280;57735;56.264;43.898;2023-01-29T05:54:53;100818.66;;;-2.55;70.73
70323;BME280;57735;56.264;43.898;2023-01-29T05:57:23;100808.44;;;-2.61;70.75
70323;BME280;57735;56.264;43.898;2023-01-29T05:59:54;100805.94;;;-2.64;70.68
70323;BME280;57735;56.264;43.898;2023-01-29T06:02:28;100812.25;;;-2.69;70.87
70323;BME280;57735;56.264;43.898;2023-01-29T06:05:03;100806.97;;;-2.68;70.68
70323;BME280;57735;56.264;43.898;2023-01-29T06:07:35;100809.50;;;-2.66;70.78
70323;BME280;57735;56.264;43.898;2023-01-29T06:10:14;100808.66;;;-2.67;70.59
70323;BME280;57735;56.264;43.898;2023-01-29T06:12:48;100807.81;;;-2.67;70.72
70323;BME280;57735;56.264;43.898;2023-01-29T06:15:19;100808.00;;;-2.72;70.91
70323;BME280;57735;56.264;43.898;2023-01-29T06:17:52;100800.19;;;-2.72;70.99
70323;BME280;57735;56.264;43.898;2023-01-29T06:20:23;100798.59;;;-2.76;70.43
70323;BME280;57735;56.264;43.898;2023-01-29T06:22:54;100803.75;;;-2.74;70.58
70323;BME280;57735;56.264;43.898;2023-01-29T06:25:25;100794.06;;;-2.71;70.80
70323;BME280;57735;56.264;43.898;2023-01-29T06:27:56;100788.69;;;-2.68;70.45
70323;BME280;57735;56.264;43.898;2023-01-29T06:30:26;100790.53;;;-2.70;69.85
70323;BME280;57735;56.264;43.898;2023-01-29T06:32:58;100787.13;;;-2.72;70.18
70323;BME280;57735;56.264;43.898;2023-01-29T06:35:30;100782.78;;;-2.71;69.81
70323;BME280;57735;56.264;43.898;2023-01-29T06:38:01;100787.09;;;-2.70;70.06
70323;BME280;57735;56.264;43.898;2023-01-29T06:40:32;100783.47;;;-2.68;70.21
70323;BME280;57735;56.264;43.898;2023-01-29T06:43:03;100776.44;;;-2.66;69.92
70323;BME280;57735;56.264;43.898;2023-01-29T06:45:36;100768.50;;;-2.63;69.83
70323;BME280;57735;56.264;43.898;2023-01-29T06:48:06;100785.00;;;-2.62;69.88
70323;BME280;57735;56.264;43.898;2023-01-29T06:50:37;100788.34;;;-2.59;69.88
70323;BME280;57735;56.264;43.898;2023-01-29T06:53:08;100784.59;;;-2.52;69.46
70323;BME280;57735;56.264;43.898;2023-01-29T06:55:41;100778.66;;;-2.55;69.49
70323;BME280;57735;56.264;43.898;2023-01-29T06:58:14;100789.94;;;-2.55;69.49
70323;BME280;57735;56.264;43.898;2023-01-29T07:00:45;100779.22;;;-2.49;68.98
70323;BME280;57735;56.264;43.898;2023-01-29T07:03:16;100772.38;;;-2.51;68.40
70323;BME280;57735;56.264;43.898;2023-01-29T07:05:51;100776.78;;;-2.52;68.47
70323;BME280;57735;56.264;43.898;2023-01-29T07:08:22;100783.75;;;-2.52;68.29
70323;BME280;57735;56.264;43.898;2023-01-29T07:10:58;100789.81;;;-2.52;68.09
70323;BME280;57735;56.264;43.898;2023-01-29T07:13:29;100780.94;;;-2.48;67.98
70323;BME280;57735;56.264;43.898;2023-01-29T07:16:01;100779.84;;;-2.42;68.01
70323;BME280;57735;56.264;43.898;2023-01-29T07:18:32;100772.63;;;-2.35;67.91
70323;BME280;57735;56.264;43.898;2023-01-29T07:21:04;100776.91;;;-2.34;67.96
70323;BME280;57735;56.264;43.898;2023-01-29T07:23:35;100769.56;;;-2.25;68.08
70323;BME280;57735;56.264;43.898;2023-01-29T07:26:06;100765.72;;;-2.16;67.66
70323;BME280;57735;56.264;43.898;2023-01-29T07:28:40;100766.97;;;-2.04;67.45
70323;BME280;57735;56.264;43.898;2023-01-29T07:31:12;100764.50;;;-2.07;67.21
70323;BME280;57735;56.264;43.898;2023-01-29T07:33:45;100760.38;;;-2.13;67.32
70323;BME280;57735;56.264;43.898;2023-01-29T07:36:16;100768.19;;;-2.13;67.52
70323;BME280;57735;56.264;43.898;2023-01-29T07:38:48;100768.38;;;-2.18;67.63
70323;BME280;57735;56.264;43.898;2023-01-29T07:41:20;100770.66;;;-2.30;67.79
70323;BME280;57735;56.264;43.898;2023-01-29T07:43:51;100767.59;;;-2.40;67.67
70323;BME280;57735;56.264;43.898;2023-01-29T07:46:21;100763.50;;;-2.47;67.74
70323;BME280;57735;56.264;43.898;2023-01-29T07:48:52;100759.47;;;-2.54;67.89
70323;BME280;57735;56.264;43.898;2023-01-29T07:51:23;100763.22;;;-2.61;67.65
70323;BME280;57735;56.264;43.898;2023-01-29T07:53:54;100768.44;;;-2.61;67.60
70323;BME280;57735;56.264;43.898;2023-01-29T07:56:24;100764.47;;;-2.50;67.59
70323;BME280;57735;56.264;43.898;2023-01-29T07:58:55;100760.78;;;-2.44;67.14
70323;BME280;57735;56.264;43.898;2023-01-29T08:01:26;100755.50;;;-2.42;66.22
70323;BME280;57735;56.264;43.898;2023-01-29T08:03:57;100753.56;;;-2.37;66.13
70323;BME280;57735;56.264;43.898;2023-01-29T08:06:27;100750.00;;;-2.35;65.78
70323;BME280;57735;56.264;43.898;2023-01-29T08:09:00;100752.38;;;-2.30;65.53
70323;BME280;57735;56.264;43.898;2023-01-29T08:11:34;100739.34;;;-2.30;65.48
70323;BME280;57735;56.264;43.898;2023-01-29T08:14:04;100731.25;;;-2.24;65.38
70323;BME280;57735;56.264;43.898;2023-01-29T08:16:35;100725.19;;;-2.25;64.80
70323;BME280;57735;56.264;43.898;2023-01-29T08:19:08;100728.41;;;-2.18;64.53
70323;BME280;57735;56.264;43.898;2023-01-29T08:21:39;100727.47;;;-2.17;64.41
70323;BME280;57735;56.264;43.898;2023-01-29T08:24:10;100718.72;;;-2.16;64.33
70323;BME280;57735;56.264;43.898;2023-01-29T08:26:41;100722.22;;;-2.17;64.13
70323;BME280;57735;56.264;43.898;2023-01-29T08:29:12;100719.34;;;-2.31;63.96
70323;BME280;57735;56.264;43.898;2023-01-29T08:31:42;100721.19;;;-2.33;64.07
70323;BME280;57735;56.264;43.898;2023-01-29T08:34:13;100716.19;;;-2.38;64.29
70323;BME280;57735;56.264;43.898;2023-01-29T08:36:47;100724.78;;;-2.36;64.40
70323;BME280;57735;56.264;43.898;2023-01-29T08:39:18;100714.34;;;-2.36;64.20
70323;BME280;57735;56.264;43.898;2023-01-29T08:41:49;100709.19;;;-2.37;64.06
70323;BME280;57735;56.264;43.898;2023-01-29T08:44:19;100709.50;;;-2.45;63.64
70323;BME280;57735;56.264;43.898;2023-01-29T08:46:50;100707.75;;;-2.44;63.67
70323;BME280;57735;56.264;43.898;2023-01-29T08:49:21;100693.25;;;-2.52;63.58
70323;BME280;57735;56.264;43.898;2023-01-29T08:51:53;100701.72;;;-2.47;63.71
70323;BME280;57735;56.264;43.898;2023-01-29T08:54:26;100696.31;;;-2.42;63.67
70323;BME280;57735;56.264;43.898;2023-01-29T08:56:56;100700.28;;;-2.33;63.21
70323;BME280;57735;56.264;43.898;2023-01-29T08:59:27;100700.44;;;-2.36;63.13
70323;BME280;57735;56.264;43.898;2023-01-29T09:02:06;100698.59;;;-2.34;63.51
70323;BME280;57735;56.264;43.898;2023-01-29T09:04:38;100683.78;;;-2.34;62.80
70323;BME280;57735;56.264;43.898;2023-01-29T09:07:09;100685.47;;;-2.33;63.09
70323;BME280;57735;56.264;43.898;2023-01-29T09:09:40;100685.28;;;-2.28;62.87
70323;BME280;57735;56.264;43.898;2023-01-29T09:12:10;100672.13;;;-2.25;62.58
70323;BME280;57735;56.264;43.898;2023-01-29T09:14:43;100680.00;;;-2.27;62.47
70323;BME280;57735;56.264;43.898;2023-01-29T09:17:17;100678.13;;;-2.23;62.96
70323;BME280;57735;56.264;43.898;2023-01-29T09:19:47;100674.91;;;-2.30;62.00
70323;BME280;57735;56.264;43.898;2023-01-29T09:22:19;100662.22;;;-2.37;62.03
70323;BME280;57735;56.264;43.898;2023-01-29T09:24:50;100662.59;;;-2.26;62.21
70323;BME280;57735;56.264;43.898;2023-01-29T09:27:20;100665.63;;;-2.17;62.17
70323;BME280;57735;56.264;43.898;2023-01-29T09:29:51;100665.56;;;-2.15;61.16
70323;BME280;57735;56.264;43.898;2023-01-29T09:32:22;100665.84;;;-2.21;61.44
70323;BME280;57735;56.264;43.898;2023-01-29T09:34:53;100672.00;;;-2.22;61.72
70323;BME280;57735;56.264;43.898;2023-01-29T09:37:33;100666.44;;;-2.15;61.55
70323;BME280;57735;56.264;43.898;2023-01-29T09:40:04;100663.13;;;-2.18;61.11
70323;BME280;57735;56.264;43.898;2023-01-29T09:42:49;100668.06;;;-2.12;61.33
70323;BME280;57735;56.264;43.898;2023-01-29T09:45:26;100671.47;;;-2.10;60.60
70323;BME280;57735;56.264;43.898;2023-01-29T09:48:00;100659.13;;;-2.27;60.51
70323;BME280;57735;56.264;43.898;2023-01-29T09:50:40;100653.72;;;-2.42;60.99
70323;BME280;57735;56.264;43.898;2023-01-29T09:53:43;100648.16;;;-2.55;61.15
70323;BME280;57735;56.264;43.898;2023-01-29T09:56:20;100649.81;;;-2.53;61.57
70323;BME280;57735;56.264;43.898;2023-01-29T09:58:56;100646.00;;;-2.66;61.25
70323;BME280;57735;56.264;43.898;2023-01-29T10:22:49;100614.59;;;-3.27;63.47
70323;BME280;57735;56.264;43.898;2023-01-29T10:25:23;100607.56;;;-3.25;63.62
70323;BME280;57735;56.264;43.898;2023-01-29T10:27:57;100610.03;;;-3.22;63.47
70323;BME280;57735;56.264;43.898;2023-01-29T10:30:38;100601.97;;;-3.16;63.52
70323;BME280;57735;56.264;43.898;2023-01-29T10:33:24;100606.31;;;-3.16;63.36
70323;BME280;57735;56.264;43.898;2023-01-29T10:36:02;100598.72;;;-3.21;63.04
70323;BME280;57735;56.264;43.898;2023-01-29T10:55:40;100576.16;;;-3.43;63.65
70323;BME280;57735;56.264;43.898;2023-01-29T11:01:03;100578.28;;;-3.53;64.48
70323;BME280;57735;56.264;43.898;2023-01-29T11:03:36;100578.88;;;-3.46;64.30
70323;BME280;57735;56.264;43.898;2023-01-29T11:06:16;100579.84;;;-3.49;64.35
70323;BME280;57735;56.264;43.898;2023-01-29T11:08:53;100570.31;;;-3.50;64.27
70323;BME280;57735;56.264;43.898;2023-01-29T11:11:33;100566.72;;;-3.46;64.99
70323;BME280;57735;56.264;43.898;2023-01-29T11:14:11;100568.13;;;-3.37;64.60
70323;BME280;57735;56.264;43.898;2023-01-29T11:16:46;100580.41;;;-3.41;64.01
70323;BME280;57735;56.264;43.898;2023-01-29T11:19:36;100574.34;;;-3.41;64.66
70323;BME280;57735;56.264;43.898;2023-01-29T11:22:23;100578.78;;;-3.43;64.13
70323;BME280;57735;56.264;43.898;2023-01-29T11:25:17;100573.66;;;-3.46;64.35
70323;BME280;57735;56.264;43.898;2023-01-29T11:27:52;100561.44;;;-3.44;64.73
70323;BME280;57735;56.264;43.898;2023-01-29T11:30:40;100562.22;;;-3.42;64.76
70323;BME280;57735;56.264;43.898;2023-01-29T11:35:44;100556.41;;;-3.49;64.91
70323;BME280;57735;56.264;43.898;2023-01-29T11:40:45;100542.00;;;-3.58;64.62
70323;BME280;57735;56.264;43.898;2023-01-29T11:46:05;100539.28;;;-3.55;64.93
70323;BME280;57735;56.264;43.898;2023-01-29T11:48:47;100538.53;;;-3.58;64.90
70323;BME280;57735;56.264;43.898;2023-01-29T11:51:23;100547.88;;;-3.53;65.15
70323;BME280;57735;56.264;43.898;2023-01-29T11:54:09;100531.31;;;-3.52;65.07
70323;BME280;57735;56.264;43.898;2023-01-29T11:56:47;100515.56;;;-3.48;64.77
70323;BME280;57735;56.264;43.898;2023-01-29T11:59:42;100526.94;;;-3.51;64.41
70323;BME280;57735;56.264;43.898;2023-01-29T12:02:41;100521.09;;;-3.56;64.72
70323;BME280;57735;56.264;43.898;2023-01-29T12:05:18;100522.13;;;-3.60;65.04
70323;BME280;57735;56.264;43.898;2023-01-29T12:07:56;100529.13;;;-3.62;65.03
70323;BME280;57735;56.264;43.898;2023-01-29T12:10:37;100523.50;;;-3.73;65.27
70323;BME280;57735;56.264;43.898;2023-01-29T12:15:41;100518.00;;;-3.66;65.74
70323;BME280;57735;56.264;43.898;2023-01-29T12:18:53;100532.13;;;-3.71;65.66
70323;BME280;57735;56.264;43.898;2023-01-29T12:21:33;100529.69;;;-3.76;65.26
70323;BME280;57735;56.264;43.898;2023-01-29T12:32:48;100529.22;;;-3.85;66.25
70323;BME280;57735;56.264;43.898;2023-01-29T12:35:37;100532.78;;;-3.88;65.99
70323;BME280;57735;56.264;43.898;2023-01-29T12:38:19;100521.47;;;-3.87;66.20
70323;BME280;57735;56.264;43.898;2023-01-29T12:44:21;100526.09;;;-3.95;66.50
70323;BME280;57735;56.264;43.898;2023-01-29T12:46:57;100527.84;;;-3.96;66.25
70323;BME280;57735;56.264;43.898;2023-01-29T12:49:32;100523.59;;;-3.98;66.27
70323;BME280;57735;56.264;43.898;2023-01-29T12:52:13;100521.00;;;-3.98;66.56
70323;BME280;57735;56.264;43.898;2023-01-29T12:54:59;100513.94;;;-3.95;66.53
70323;BME280;57735;56.264;43.898;2023-01-29T12:57:41;100519.97;;;-3.94;66.43
70323;BME280;57735;56.264;43.898;2023-01-29T13:00:19;100519.03;;;-3.92;66.75
70323;BME280;57735;56.264;43.898;2023-01-29T13:06:09;100521.06;;;-4.00;67.15
70323;BME280;57735;56.264;43.898;2023-01-29T13:11:32;100503.88;;;-4.04;66.82
70323;BME280;57735;56.264;43.898;2023-01-29T13:14:17;100505.75;;;-4.07;66.48
70323;BME280;57735;56.264;43.898;2023-01-29T13:16:52;100499.00;;;-4.13;66.92
70323;BME280;57735;56.264;43.898;2023-01-29T13:19:35;100494.53;;;-4.09;67.01
70323;BME280;57735;56.264;43.898;2023-01-29T13:22:24;100510.31;;;-4.14;66.78
70323;BME280;57735;56.264;43.898;2023-01-29T13:24:56;100495.88;;;-4.21;66.92
70323;BME280;57735;56.264;43.898;2023-01-29T13:27:29;100503.78;;;-4.24;67.40
70323;BME280;57735;56.264;43.898;2023-01-29T13:30:04;100508.09;;;-4.23;67.41
70323;BME280;57735;56.264;43.898;2023-01-29T13:32:55;100492.56;;;-4.26;67.47
70323;BME280;57735;56.264;43.898;2023-01-29T13:35:42;100501.19;;;-4.24;67.33
70323;BME280;57735;56.264;43.898;2023-01-29T13:38:27;100495.19;;;-4.26;67.57
70323;BME280;57735;56.264;43.898;2023-01-29T13:41:01;100490.59;;;-4.19;67.38
70323;BME280;57735;56.264;43.898;2023-01-29T13:43:37;100499.91;;;-4.14;66.95
70323;BME280;57735;56.264;43.898;2023-01-29T13:46:16;100489.44;;;-4.12;66.88
70323;BME280;57735;56.264;43.898;2023-01-29T13:48:51;100492.00;;;-4.11;66.75
70323;BME280;57735;56.264;43.898;2023-01-29T13:51:29;100492.09;;;-4.14;66.85
70323;BME280;57735;56.264;43.898;2023-01-29T13:54:07;100489.41;;;-4.11;67.06
70323;BME280;57735;56.264;43.898;2023-01-29T13:57:01;100485.19;;;-4.15;66.98
70323;BME280;57735;56.264;43.898;2023-01-29T13:59:51;100486.25;;;-4.19;67.09
70323;BME280;57735;56.264;43.898;2023-01-29T14:02:24;100488.13;;;-4.23;67.17
70323;BME280;57735;56.264;43.898;2023-01-29T14:10:39;100490.66;;;-4.21;67.57
70323;BME280;57735;56.264;43.898;2023-01-29T14:18:28;100501.63;;;-4.13;67.01
70323;BME280;57735;56.264;43.898;2023-01-29T14:21:19;100501.19;;;-4.24;67.59
70323;BME280;57735;56.264;43.898;2023-01-29T14:23:52;100493.53;;;-4.29;67.63
70323;BME280;57735;56.264;43.898;2023-01-29T14:29:03;100493.03;;;-4.38;67.00
70323;BME280;57735;56.264;43.898;2023-01-29T14:31:46;100492.19;;;-4.39;67.05
70323;BME280;57735;56.264;43.898;2023-01-29T14:34:26;100486.94;;;-4.37;67.24
70323;BME280;57735;56.264;43.898;2023-01-29T14:39:54;100487.00;;;-4.39;66.82
70323;BME280;57735;56.264;43.898;2023-01-29T14:42:32;100478.50;;;-4.44;66.93
70323;BME280;57735;56.264;43.898;2023-01-29T14:47:57;100481.03;;;-4.42;66.86
70323;BME280;57735;56.264;43.898;2023-01-29T14:56:26;100465.91;;;-4.54;66.76
70323;BME280;57735;56.264;43.898;2023-01-29T15:01:38;100468.44;;;-4.53;66.63
70323;BME280;57735;56.264;43.898;2023-01-29T15:07:26;100469.72;;;-4.65;66.47
70323;BME280;57735;56.264;43.898;2023-01-29T15:10:14;100462.22;;;-4.72;67.11
70323;BME280;57735;56.264;43.898;2023-01-29T15:12:55;100465.72;;;-4.73;67.19
70323;BME280;57735;56.264;43.898;2023-01-29T15:15:51;100468.31;;;-4.73;67.03
70323;BME280;57735;56.264;43.898;2023-01-29T15:18:33;100463.19;;;-4.75;66.79
70323;BME280;57735;56.264;43.898;2023-01-29T15:21:14;100454.38;;;-4.71;67.01
70323;BME280;57735;56.264;43.898;2023-01-29T15:23:46;100448.13;;;-4.67;66.74
70323;BME280;57735;56.264;43.898;2023-01-29T15:26:21;100449.88;;;-4.67;66.64
70323;BME280;57735;56.264;43.898;2023-01-29T15:29:00;100449.94;;;-4.69;66.98
70323;BME280;57735;56.264;43.898;2023-01-29T15:31:31;100451.56;;;-4.66;66.57
70323;BME280;57735;56.264;43.898;2023-01-29T15:34:06;100454.19;;;-4.66;66.45
70323;BME280;57735;56.264;43.898;2023-01-29T15:36:37;100455.22;;;-4.70;65.97
70323;BME280;57735;56.264;43.898;2023-01-29T15:41:43;100465.66;;;-4.72;66.02